Domov               UVHVVR             MKGP            O straneh              
ZDRAVSTVENO VARSTVO RASTLIN
  MREŽA AGROMET. POSTAJ
 ► PROGNOSTIČNA OBVESTILA
AGROMETEOROLOŠKI PODATKI -
ARSO
OBVLADOVANJE TVEGANJ ZARADI
NEUGODNIH VREMENSKIH RAZMER
  ► NARAVNE NESREČE
  ► SUŠA/MOČA
  ► NAMAKANJE
  ► ŽLED (gozdarstvo)
KARTOGRAFSKI PRIKAZI
SPLETNE POVEZAVE
PROJEKTI IN PUBLIKACIJE

AGROMETEOROLOŠKA MREŽA: VREMENSKE POSTAJE IN FENOLOŠKA OPAZOVANJA

Pregled podatkov za lokacijo Šlovrenc, meteorološka postaja 859088

Pregled senzorjev na lokaciji

ID Ime Zadnja
vrednost
Datum in čas
zadnje
spremembe
(Lokalni čas)
Tip
senzorja
4325 Omočenost lista (U) 2 U 14.10.2019 19:30 A730WET
3976 Padavine (mm) 0 mm 14.10.2019 19:30 Rain-O-Matic
3974 Relativna vlaga 2 m (% RH) 97.35 % RH 14.10.2019 19:30 50YA
3973 Temperatura 2 m (°C) 15.71 °C 14.10.2019 19:29 50YA

Pregled podatkov zadnjih 24 ur

Zap.
št.
Datum in čas
(Centralno
evropski čas)
Šlovrenc
Omočenost
lista
Padavine Relativna
vlaga
2
m
Temperatura
2
m
1 14.10.2019 20:00
2 14.10.2019 19:30
3 14.10.2019 19:00
4 14.10.2019 18:30 2 0 97.4 15.7
5 14.10.2019 18:00 1 0 95.3 16.5
6 14.10.2019 17:30 0 0 92.4 17.4
7 14.10.2019 17:00 0 0 88.8 18
8 14.10.2019 16:30 0 0 85 18.7
9 14.10.2019 16:00 0 0 82.8 18.8
10 14.10.2019 15:30 0 0 82.7 18.9
11 14.10.2019 15:00 0 0 81 19
12 14.10.2019 14:30 0 0 77.1 19.7
13 14.10.2019 14:00 0 0 74.1 20
14 14.10.2019 13:30 0 0 74.3 20.3
15 14.10.2019 13:00 0 0 75.4 20.2
16 14.10.2019 12:30 0 0 71.1 21.5
17 14.10.2019 12:00 0 0 72.9 21
18 14.10.2019 11:30 0 0 75.8 20.4
19 14.10.2019 11:00 0 0 79.3 19.2
20 14.10.2019 10:30 0 0 87.7 17.8
21 14.10.2019 10:00 10 0 98.3 16.9
22 14.10.2019 09:30 10 0 100 16.2
23 14.10.2019 09:00 10 0 100 15.3
24 14.10.2019 08:30 10 0 100 14.6
25 14.10.2019 08:00 10 0 100 14.2
26 14.10.2019 07:30 10 0 100 13.6
27 14.10.2019 07:00 10 0 100 13.3
28 14.10.2019 06:30 10 0 100 13
29 14.10.2019 06:00 10 0 100 13
30 14.10.2019 05:30 10 0 100 12.9
31 14.10.2019 05:00 10 0 100 12.8
32 14.10.2019 04:30 10 0 100 12.7
33 14.10.2019 04:00 10 0 100 12.5
34 14.10.2019 03:30 10 0 100 12.3
35 14.10.2019 03:00 10 0 100 12.5
36 14.10.2019 02:30 10 0 100 12.4
37 14.10.2019 02:00 10 0 100 12.2
38 14.10.2019 01:30 10 0 100 12.3
39 14.10.2019 01:00 10 0 100 12.5
40 14.10.2019 00:30 10 0 100 12.7
41 14.10.2019 00:00 10 0 100 12.6
42 13.10.2019 23:30 10 0 100 12.6
43 13.10.2019 23:00 10 0 100 12.6
44 13.10.2019 22:30 10 0 100 12.4
45 13.10.2019 22:00 10 0 100 12.4
46 13.10.2019 21:30 10 0 100 12.3
47 13.10.2019 21:00 10 0 100 12.5
48 13.10.2019 20:30 10 0 100 12.6
© 2011 Ministrstvo za kmetijstvo, gozdarstvo in prehrano. Vse pravice pridržane.